Time;durP1;ratioP1;P1;durP2;ratioP2;P2;SDS_P1;SDS_P2;PMS_P1;PMS_P2;Temp;Humidity;BMP_temperature;BMP_pressure;BME280_temperature;BME280_humidity;BME280_pressure;Samples;Min_cycle;Max_cycle;Signal;HPM_P1;HPM_P2
2022/11/19 00:01:05;;;;;;;19.93;13.50;;;8.40;92.50;;;;;;4993516;28;20432;-75
2022/11/19 00:03:32;;;;;;;19.90;13.35;;;8.30;93.40;;;;;;4996271;28;20382;-76
2022/11/19 00:06:06;;;;;;;22.90;14.20;;;8.20;96.10;;;;;;4996205;28;20394;-75
2022/11/19 00:08:32;;;;;;;19.85;13.25;;;8.20;97.70;;;;;;4996371;28;20883;-75
2022/11/19 00:11:03;;;;;;;19.77;12.10;;;8.20;99.50;;;;;;4996461;28;20444;-75
2022/11/19 00:13:29;;;;;;;18.00;12.02;;;8.30;96.90;;;;;;4996409;28;20386;-75
2022/11/19 00:15:54;;;;;;;19.60;12.37;;;8.30;94.90;;;;;;4995036;28;20382;-77
2022/11/19 00:18:20;;;;;;;18.63;12.57;;;8.30;91.70;;;;;;4995903;28;20452;-77
2022/11/19 00:20:46;;;;;;;19.27;12.30;;;8.30;93.20;;;;;;4995723;28;20398;-75
2022/11/19 00:23:11;;;;;;;17.07;11.70;;;8.20;93.10;;;;;;4996546;28;20461;-75
2022/11/19 00:25:37;;;;;;;21.20;12.53;;;8.20;93.80;;;;;;4998258;28;20845;-79
2022/11/19 00:28:02;;;;;;;21.97;13.20;;;8.20;92.10;;;;;;4996872;28;20799;-77
2022/11/19 00:30:28;;;;;;;16.23;12.00;;;8.20;93.20;;;;;;5000117;28;20413;-77
2022/11/19 00:32:55;;;;;;;17.70;13.20;;;8.20;92.20;;;;;;5004315;28;20406;-74
2022/11/19 00:35:21;;;;;;;22.42;14.07;;;8.10;93.30;;;;;;5001521;28;20402;-76
2022/11/19 00:37:46;;;;;;;20.00;12.32;;;8.10;94.30;;;;;;5004926;28;20529;-76
2022/11/19 00:40:12;;;;;;;21.50;12.80;;;8.10;90.70;;;;;;5004066;28;20378;-77
2022/11/19 00:42:38;;;;;;;18.75;13.25;;;8.00;90.00;;;;;;4997752;28;20768;-76
2022/11/19 00:45:05;;;;;;;18.42;11.25;;;8.00;90.50;;;;;;4996678;28;20391;-76
2022/11/19 00:47:31;;;;;;;16.33;11.15;;;8.00;89.50;;;;;;4995541;28;20705;-75
2022/11/19 00:49:56;;;;;;;17.57;11.30;;;7.90;86.80;;;;;;4995200;28;20383;-75
2022/11/19 00:52:22;;;;;;;19.43;12.93;;;7.70;87.10;;;;;;4994983;28;20786;-76
2022/11/19 00:54:48;;;;;;;21.33;12.40;;;7.60;87.80;;;;;;4993772;28;20394;-76
2022/11/19 00:57:13;;;;;;;20.10;13.50;;;7.60;90.90;;;;;;4995391;28;20382;-76
2022/11/19 00:59:39;;;;;;;18.60;12.73;;;7.50;93.40;;;;;;4995471;28;20984;-78
2022/11/19 01:02:04;;;;;;;20.63;13.83;;;7.50;95.50;;;;;;4996000;28;20445;-78
2022/11/19 01:04:30;;;;;;;18.67;12.03;;;7.50;95.40;;;;;;4995771;28;20409;-76
2022/11/19 01:06:55;;;;;;;16.93;11.33;;;7.40;93.60;;;;;;4995376;28;20490;-75
2022/11/19 01:09:21;;;;;;;16.57;10.60;;;7.30;94.40;;;;;;4995518;28;20398;-75
2022/11/19 01:11:47;;;;;;;17.30;11.27;;;7.10;95.10;;;;;;4993839;28;20466;-77
2022/11/19 01:14:13;;;;;;;19.88;12.55;;;7.00;97.00;;;;;;4994504;28;20871;-77
2022/11/19 01:16:40;;;;;;;16.10;10.45;;;7.10;99.40;;;;;;4995337;28;20394;-76
2022/11/19 01:19:08;;;;;;;16.08;11.10;;;7.10;97.90;;;;;;4998023;28;20397;-75
2022/11/19 01:21:34;;;;;;;19.23;11.98;;;7.00;96.30;;;;;;5000821;28;20391;-76
2022/11/19 01:24:02;;;;;;;14.10;9.18;;;7.00;98.70;;;;;;5004870;28;20709;-77
2022/11/19 01:26:28;;;;;;;16.25;10.90;;;7.00;96.50;;;;;;5012960;28;20425;-75
2022/11/19 01:28:54;;;;;;;18.70;10.63;;;6.90;97.90;;;;;;5011411;28;20395;-76
2022/11/19 01:31:23;;;;;;;19.13;12.63;;;6.80;96.30;;;;;;5012468;28;20386;-76
2022/11/19 01:33:49;;;;;;;21.60;14.10;;;6.80;98.00;;;;;;5010681;28;20402;-76
2022/11/19 01:36:17;;;;;;;19.02;11.52;;;6.80;99.90;;;;;;5010764;28;20387;-77
2022/11/19 01:38:49;;;;;;;18.08;12.05;;;6.80;98.00;;;;;;5011964;28;20451;-76
2022/11/19 01:41:28;;;;;;;22.50;12.40;;;6.80;98.60;;;;;;5010812;28;20410;-77
2022/11/19 01:44:00;;;;;;;18.48;11.88;;;6.80;96.60;;;;;;5001540;28;20393;-76
2022/11/19 01:46:28;;;;;;;15.02;10.57;;;6.70;94.90;;;;;;4994006;28;20397;-75
2022/11/19 01:49:16;;;;;;;15.50;10.30;;;6.70;93.70;;;;;;4994146;28;20386;-77
2022/11/19 01:51:54;;;;;;;14.82;9.20;;;6.70;94.70;;;;;;4995274;28;20413;-78
2022/11/19 01:54:28;;;;;;;16.80;9.80;;;6.60;91.50;;;;;;4995574;28;20872;-77
2022/11/19 01:56:57;;;;;;;15.00;9.82;;;6.50;90.90;;;;;;4993635;28;20756;-77
2022/11/19 01:59:25;;;;;;;14.07;9.35;;;6.50;93.00;;;;;;4994130;28;20473;-76
2022/11/19 02:01:50;;;;;;;19.00;10.45;;;6.40;89.70;;;;;;4993939;28;20741;-77
2022/11/19 02:04:17;;;;;;;16.23;10.32;;;6.30;92.10;;;;;;4992636;28;20505;-76
2022/11/19 02:06:44;;;;;;;18.13;11.05;;;6.30;92.70;;;;;;4994128;28;20398;-77
2022/11/19 02:09:10;;;;;;;22.88;13.48;;;6.30;90.40;;;;;;4993775;28;20390;-76
2022/11/19 02:12:16;;;;;;;21.95;11.82;;;6.30;93.70;;;;;;4993530;28;20889;-76
2022/11/19 02:14:51;;;;;;;20.35;11.35;;;6.30;92.40;;;;;;4981281;28;20407;-76
2022/11/19 02:17:22;;;;;;;17.08;10.63;;;6.30;90.30;;;;;;4993375;28;20478;-75
2022/11/19 02:20:12;;;;;;;17.10;10.40;;;6.30;90.00;;;;;;4993202;28;20379;-75
2022/11/19 02:23:08;;;;;;;23.70;13.30;;;6.20;88.40;;;;;;4992895;28;20811;-76
2022/11/19 02:25:58;;;;;;;23.35;11.95;;;6.20;91.60;;;;;;4993280;28;20791;-76
2022/11/19 02:28:46;;;;;;;19.45;11.23;;;6.20;89.70;;;;;;4993059;28;20387;-77
2022/11/19 02:31:28;;;;;;;20.55;12.38;;;6.20;88.90;;;;;;4992701;28;20401;-77
2022/11/19 02:33:58;;;;;;;22.27;13.63;;;6.10;86.50;;;;;;4993277;28;20422;-76
2022/11/19 02:36:45;;;;;;;24.00;15.15;;;6.00;87.60;;;;;;4993083;28;20378;-76
2022/11/19 02:39:23;;;;;;;21.52;14.20;;;6.00;87.40;;;;;;4993990;28;20390;-76
2022/11/19 02:42:15;;;;;;;24.98;14.52;;;6.10;87.10;;;;;;4999460;28;20461;-76
2022/11/19 02:44:58;;;;;;;26.35;15.52;;;6.00;86.50;;;;;;4994893;28;20398;-77
2022/11/19 02:47:32;;;;;;;28.25;17.30;;;6.00;84.90;;;;;;5009191;28;20453;-75
2022/11/19 02:50:15;;;;;;;29.67;17.52;;;5.90;87.70;;;;;;5006054;28;20540;-77
2022/11/19 02:52:42;;;;;;;26.85;16.73;;;5.90;88.40;;;;;;5005805;28;20396;-76
2022/11/19 02:55:15;;;;;;;26.70;16.40;;;6.00;86.40;;;;;;5007412;28;20503;-78
2022/11/19 02:57:47;;;;;;;31.30;18.65;;;5.90;82.80;;;;;;5006193;28;20397;-76
2022/11/19 03:06:10;;;;;;;28.47;17.10;;;5.90;82.60;;;;;;5007459;28;20493;-77
2022/11/19 03:08:36;;;;;;;30.00;18.17;;;5.90;82.20;;;;;;5006257;28;20383;-77
2022/11/19 03:11:04;;;;;;;33.47;17.70;;;5.80;83.20;;;;;;5004157;28;20525;-77
2022/11/19 03:16:42;;;;;;;31.65;17.83;;;5.60;84.60;;;;;;5000450;28;20743;-78
2022/11/19 03:19:34;;;;;;;32.80;17.58;;;5.60;84.20;;;;;;4998938;28;20828;-77
2022/11/19 03:22:14;;;;;;;32.97;17.70;;;5.50;82.10;;;;;;5001311;28;20402;-78
2022/11/19 03:24:44;;;;;;;33.85;18.73;;;5.40;81.00;;;;;;5005102;28;20395;-76
2022/11/19 03:27:19;;;;;;;32.63;18.50;;;5.40;84.10;;;;;;5007413;28;20446;-75
2022/11/19 03:29:48;;;;;;;36.95;19.05;;;5.40;83.40;;;;;;5005485;28;20402;-75
2022/11/19 03:32:18;;;;;;;34.42;19.38;;;5.40;83.00;;;;;;5006223;28;20407;-75
2022/11/19 03:34:47;;;;;;;32.63;19.75;;;5.40;83.10;;;;;;5007462;28;20395;-78
2022/11/19 03:37:16;;;;;;;34.22;19.45;;;5.40;84.20;;;;;;5005197;28;20394;-77
2022/11/19 03:39:42;;;;;;;30.75;19.50;;;5.60;84.40;;;;;;5007345;28;20412;-77
2022/11/19 03:42:11;;;;;;;31.08;18.52;;;5.60;81.70;;;;;;5015354;28;20911;-76
2022/11/19 03:44:47;;;;;;;38.13;20.85;;;5.60;77.20;;;;;;5013371;28;20402;-76
2022/11/19 03:47:19;;;;;;;34.58;20.20;;;5.60;79.10;;;;;;5006692;28;20397;-76
2022/11/19 03:49:51;;;;;;;36.55;21.30;;;5.60;79.00;;;;;;5003684;28;20443;-77
2022/11/19 03:52:19;;;;;;;41.65;21.90;;;5.70;78.20;;;;;;5004641;28;20406;-77
2022/11/19 03:54:45;;;;;;;39.08;21.50;;;5.70;78.70;;;;;;5004747;28;20395;-77
2022/11/19 03:57:15;;;;;;;39.67;20.38;;;5.70;76.30;;;;;;5003333;28;20398;-76
2022/11/19 03:59:41;;;;;;;38.40;20.55;;;5.70;75.30;;;;;;5001947;28;20391;-76
2022/11/19 04:02:09;;;;;;;35.25;21.52;;;5.70;71.50;;;;;;5000579;28;20395;-76
2022/11/19 04:04:36;;;;;;;35.80;21.35;;;5.60;72.90;;;;;;5000810;28;20431;-76
2022/11/19 04:07:03;;;;;;;38.00;22.75;;;5.50;72.20;;;;;;4982506;28;20399;-78
2022/11/19 04:09:28;;;;;;;39.75;23.08;;;5.40;73.90;;;;;;4964023;28;20834;-76
2022/11/19 04:11:54;;;;;;;38.67;22.67;;;5.50;76.00;;;;;;5026657;28;20415;-74
2022/11/19 04:14:19;;;;;;;42.85;24.30;;;5.50;72.50;;;;;;5014988;28;20462;-75
2022/11/19 04:16:45;;;;;;;38.30;22.37;;;5.50;75.30;;;;;;5008904;28;20873;-75
2022/11/19 04:19:11;;;;;;;42.90;23.75;;;5.40;74.60;;;;;;4997822;28;20405;-75
2022/11/19 04:21:36;;;;;;;44.88;24.35;;;5.40;72.90;;;;;;4987018;28;20396;-74
2022/11/19 04:24:02;;;;;;;43.85;24.65;;;5.40;74.20;;;;;;4986323;28;20430;-76
2022/11/19 04:26:28;;;;;;;39.57;23.70;;;5.40;76.00;;;;;;4992490;28;20402;-75
2022/11/19 04:28:53;;;;;;;43.33;25.50;;;5.40;71.10;;;;;;4996076;28;20390;-75
2022/11/19 04:31:19;;;;;;;46.83;27.17;;;5.30;72.10;;;;;;4998885;28;20414;-73
2022/11/19 04:33:44;;;;;;;47.67;27.40;;;5.30;72.70;;;;;;4993144;28;20524;-75
2022/11/19 04:36:10;;;;;;;45.37;27.00;;;5.30;75.90;;;;;;4991965;28;20390;-75
2022/11/19 04:38:35;;;;;;;46.30;27.10;;;5.40;75.70;;;;;;4991661;28;20387;-75
2022/11/19 04:41:01;;;;;;;46.83;27.80;;;5.40;74.90;;;;;;4990735;28;20402;-74
2022/11/19 04:43:26;;;;;;;40.15;24.95;;;5.50;78.50;;;;;;4991330;28;20378;-75
2022/11/19 04:45:52;;;;;;;48.90;26.90;;;5.50;73.00;;;;;;4990496;28;20399;-75
2022/11/19 04:48:17;;;;;;;49.47;26.52;;;5.50;74.30;;;;;;4994241;28;20386;-75
2022/11/19 04:50:43;;;;;;;40.50;25.10;;;5.40;75.70;;;;;;4994416;28;20779;-74
2022/11/19 04:53:08;;;;;;;43.85;25.75;;;5.50;73.50;;;;;;4994776;28;20922;-75
2022/11/19 04:55:34;;;;;;;41.28;25.58;;;5.50;73.40;;;;;;4995078;28;20382;-74
2022/11/19 04:58:00;;;;;;;44.60;24.88;;;5.50;73.00;;;;;;4994889;28;20441;-74
2022/11/19 05:00:25;;;;;;;39.95;24.25;;;5.50;72.50;;;;;;4993125;28;20755;-75
2022/11/19 05:02:51;;;;;;;46.67;25.35;;;5.50;70.30;;;;;;4994210;28;20394;-75
2022/11/19 05:05:16;;;;;;;43.60;25.90;;;5.50;72.10;;;;;;4994185;28;20390;-76
2022/11/19 05:07:42;;;;;;;40.10;25.40;;;5.50;73.80;;;;;;4994120;28;20390;-74
2022/11/19 05:10:08;;;;;;;43.67;24.27;;;5.50;71.50;;;;;;4994532;28;20394;-75
2022/11/19 05:12:33;;;;;;;47.57;28.57;;;5.50;70.70;;;;;;4993830;28;20763;-75
2022/11/19 05:14:59;;;;;;;44.53;26.40;;;5.40;73.90;;;;;;4994354;28;20394;-75
2022/11/19 05:17:24;;;;;;;38.63;24.10;;;5.40;76.60;;;;;;4994533;28;20383;-76
2022/11/19 05:19:50;;;;;;;39.10;23.87;;;5.40;74.10;;;;;;4994678;28;20386;-74
2022/11/19 05:22:15;;;;;;;41.00;23.60;;;5.50;70.30;;;;;;4993871;28;20394;-76
2022/11/19 05:24:41;;;;;;;42.00;25.10;;;5.50;68.70;;;;;;4994216;28;20387;-76
2022/11/19 05:27:06;;;;;;;43.80;25.27;;;5.40;69.40;;;;;;4994122;28;20468;-74
2022/11/19 05:29:32;;;;;;;43.70;25.77;;;5.50;68.60;;;;;;4994192;28;20983;-74
2022/11/19 05:31:57;;;;;;;41.90;26.08;;;5.40;70.00;;;;;;4993902;28;20491;-76
2022/11/19 05:34:23;;;;;;;42.17;26.75;;;5.40;71.00;;;;;;4994427;28;20397;-74
2022/11/19 05:36:48;;;;;;;45.45;27.92;;;5.40;72.00;;;;;;4994334;28;20428;-75
2022/11/19 05:39:14;;;;;;;43.20;26.23;;;5.40;73.40;;;;;;4994924;28;20394;-75
2022/11/19 05:41:39;;;;;;;39.73;26.00;;;5.50;71.10;;;;;;4994103;28;20414;-76
2022/11/19 05:44:05;;;;;;;43.30;26.70;;;5.50;69.90;;;;;;4994785;28;20402;-75
2022/11/19 05:46:31;;;;;;;40.80;25.80;;;5.50;69.00;;;;;;4996243;28;20394;-74
2022/11/19 05:48:56;;;;;;;43.07;26.67;;;5.40;68.50;;;;;;5011520;28;20438;-72
2022/11/19 05:51:22;;;;;;;40.30;26.13;;;5.40;71.70;;;;;;5015786;28;20438;-73
2022/11/19 05:53:47;;;;;;;42.20;26.97;;;5.50;70.50;;;;;;5015926;28;20398;-76
2022/11/19 05:56:13;;;;;;;42.45;27.77;;;5.50;69.70;;;;;;4999858;28;20402;-75
2022/11/19 05:58:38;;;;;;;44.88;27.60;;;5.50;71.00;;;;;;4991554;28;20395;-75
2022/11/19 06:01:04;;;;;;;45.75;28.70;;;5.50;69.90;;;;;;4993586;28;20394;-75
2022/11/19 06:03:31;;;;;;;40.53;26.38;;;5.40;70.60;;;;;;4993600;28;20445;-74
2022/11/19 06:05:56;;;;;;;43.28;27.77;;;5.50;69.50;;;;;;4994066;28;20429;-75
2022/11/19 06:08:22;;;;;;;44.77;28.23;;;5.40;69.90;;;;;;4993880;28;20506;-74
2022/11/19 06:10:47;;;;;;;44.57;27.10;;;5.40;67.00;;;;;;4993609;28;20414;-74
2022/11/19 06:13:13;;;;;;;43.83;27.90;;;5.50;67.60;;;;;;4994404;28;20394;-75
2022/11/19 06:15:39;;;;;;;49.67;26.90;;;5.40;67.00;;;;;;4993982;28;20923;-76
2022/11/19 06:18:04;;;;;;;42.03;26.60;;;5.40;67.40;;;;;;4999519;28;20379;-74
2022/11/19 06:20:30;;;;;;;41.50;27.73;;;5.40;68.90;;;;;;4996301;28;20392;-75
2022/11/19 06:22:56;;;;;;;42.65;26.38;;;5.40;66.60;;;;;;4995684;28;20391;-73
2022/11/19 06:25:22;;;;;;;46.90;28.23;;;5.30;66.60;;;;;;5000984;28;20466;-74
2022/11/19 06:27:48;;;;;;;41.45;27.77;;;5.30;67.50;;;;;;4994109;28;20401;-76
2022/11/19 06:30:15;;;;;;;45.40;27.83;;;5.30;69.40;;;;;;4993423;28;20473;-75
2022/11/19 06:32:41;;;;;;;43.58;27.58;;;5.30;68.50;;;;;;4992166;28;20775;-74
2022/11/19 06:35:07;;;;;;;47.38;27.10;;;5.30;67.10;;;;;;4993561;28;20444;-75
2022/11/19 06:37:32;;;;;;;44.50;28.42;;;5.30;66.50;;;;;;4994674;28;20868;-77
2022/11/19 06:39:58;;;;;;;45.05;27.25;;;5.30;64.20;;;;;;4994412;28;20398;-73
2022/11/19 06:42:35;;;;;;;48.97;28.13;;;5.30;63.40;;;;;;4992354;28;20783;-76
2022/11/19 06:45:12;;;;;;;43.60;27.60;;;5.30;67.20;;;;;;4994140;28;20444;-75
2022/11/19 06:47:39;;;;;;;47.03;29.00;;;5.30;65.40;;;;;;4994973;28;20394;-75
2022/11/19 06:50:06;;;;;;;48.05;30.10;;;5.30;69.00;;;;;;4995749;28;20393;-76
2022/11/19 06:52:31;;;;;;;46.67;28.88;;;5.30;68.60;;;;;;4993866;28;20961;-76
2022/11/19 06:54:57;;;;;;;49.43;28.90;;;5.30;65.90;;;;;;4992721;28;20390;-76
2022/11/19 06:57:23;;;;;;;47.90;28.80;;;5.30;65.20;;;;;;4992841;28;20862;-75
2022/11/19 06:59:49;;;;;;;45.85;28.08;;;5.30;65.10;;;;;;4991407;28;20394;-73
2022/11/19 07:02:14;;;;;;;46.10;27.67;;;5.30;62.30;;;;;;4992033;28;20737;-75
2022/11/19 07:04:40;;;;;;;48.63;29.50;;;5.20;66.00;;;;;;4992490;28;20612;-74
2022/11/19 07:07:05;;;;;;;52.83;29.23;;;5.20;67.30;;;;;;4993528;28;20449;-76
2022/11/19 07:09:31;;;;;;;50.40;28.73;;;5.20;64.00;;;;;;4992888;28;20402;-74
2022/11/19 07:11:56;;;;;;;42.93;27.90;;;5.20;63.60;;;;;;4992633;28;20442;-76
2022/11/19 07:14:22;;;;;;;53.30;28.60;;;5.20;62.00;;;;;;4993207;28;20427;-76
2022/11/19 07:16:47;;;;;;;50.70;29.60;;;5.10;63.00;;;;;;4994093;28;20386;-76
2022/11/19 07:19:13;;;;;;;54.30;30.93;;;5.20;64.70;;;;;;4992534;28;20417;-75
2022/11/19 07:21:39;;;;;;;42.37;27.60;;;5.10;64.40;;;;;;4990380;28;20394;-75
2022/11/19 07:24:06;;;;;;;46.60;29.52;;;5.20;61.70;;;;;;4992378;28;20389;-76
2022/11/19 07:26:33;;;;;;;49.78;30.30;;;5.20;62.30;;;;;;4990990;28;20393;-75
2022/11/19 07:29:04;;;;;;;50.20;30.33;;;5.10;63.20;;;;;;4991941;28;20395;-74
2022/11/19 07:31:30;;;;;;;51.30;30.40;;;5.20;64.30;;;;;;4991815;28;20787;-75
2022/11/19 07:33:56;;;;;;;48.45;30.70;;;5.10;63.40;;;;;;4992077;28;20389;-75
2022/11/19 07:36:22;;;;;;;48.28;29.00;;;5.20;65.40;;;;;;4991839;28;20397;-76
2022/11/19 07:38:49;;;;;;;51.47;29.92;;;5.30;63.30;;;;;;4991890;28;20871;-75
2022/11/19 07:43:59;;;;;;;47.23;30.10;;;5.40;63.00;;;;;;4992247;28;20778;-76
2022/11/19 07:46:24;;;;;;;49.37;29.90;;;5.40;62.10;;;;;;4991052;28;20398;-76
2022/11/19 07:48:54;;;;;;;53.60;30.10;;;5.30;61.60;;;;;;4992202;28;20787;-76
2022/11/19 07:51:20;;;;;;;50.22;30.00;;;5.40;60.50;;;;;;4992018;28;20501;-74
2022/11/19 07:53:45;;;;;;;53.50;29.92;;;5.30;63.00;;;;;;4993271;28;20903;-75
2022/11/19 07:56:11;;;;;;;55.60;30.87;;;5.30;61.70;;;;;;4993130;28;20398;-76
2022/11/19 07:58:36;;;;;;;51.90;31.53;;;5.30;63.20;;;;;;4992857;28;20425;-75
2022/11/19 08:01:10;;;;;;;52.00;30.90;;;5.30;61.90;;;;;;4992081;28;20891;-76
2022/11/19 08:03:36;;;;;;;56.83;31.63;;;5.30;60.30;;;;;;4992227;28;20394;-76
2022/11/19 08:06:06;;;;;;;52.10;30.52;;;5.40;61.00;;;;;;4993022;28;20429;-74
2022/11/19 08:08:32;;;;;;;52.17;30.17;;;5.40;59.00;;;;;;4993109;28;20452;-75
2022/11/19 08:11:03;;;;;;;50.97;30.75;;;5.40;60.20;;;;;;4996756;28;20476;-76
2022/11/19 08:13:28;;;;;;;52.50;29.88;;;5.40;60.10;;;;;;5002183;28;20395;-75
2022/11/19 08:15:59;;;;;;;50.80;30.47;;;5.50;59.70;;;;;;4996532;28;20383;-76
2022/11/19 08:18:24;;;;;;;53.17;30.60;;;5.50;58.50;;;;;;4991871;28;20449;-75
2022/11/19 08:20:50;;;;;;;51.70;28.67;;;5.50;57.40;;;;;;4994077;28;20390;-73
2022/11/19 08:23:15;;;;;;;56.07;31.20;;;5.40;57.60;;;;;;5001202;28;20390;-76
2022/11/19 08:25:43;;;;;;;53.40;29.83;;;5.40;57.30;;;;;;5001675;28;20875;-74
2022/11/19 08:28:10;;;;;;;54.47;30.53;;;5.40;58.90;;;;;;4997044;28;20417;-76
2022/11/19 08:30:38;;;;;;;53.38;31.17;;;5.40;59.90;;;;;;4996544;28;20425;-75
2022/11/19 08:33:04;;;;;;;59.85;30.05;;;5.50;60.90;;;;;;4996207;28;20383;-77
2022/11/19 08:35:29;;;;;;;52.63;30.30;;;5.50;60.00;;;;;;4996422;28;20437;-76
2022/11/19 08:37:57;;;;;;;56.37;31.67;;;5.50;57.70;;;;;;4996221;28;20437;-74
2022/11/19 08:40:22;;;;;;;50.38;28.48;;;5.50;58.20;;;;;;4995529;28;20393;-74
2022/11/19 08:43:00;;;;;;;49.35;29.27;;;5.50;56.50;;;;;;4995421;28;20394;-73
2022/11/19 08:45:29;;;;;;;49.85;29.10;;;5.50;57.90;;;;;;4995394;28;20505;-74
2022/11/19 08:47:55;;;;;;;49.92;29.55;;;5.50;59.30;;;;;;4993976;28;20440;-74
2022/11/19 08:50:22;;;;;;;47.30;28.40;;;5.50;57.30;;;;;;4994975;28;20440;-74
2022/11/19 08:52:56;;;;;;;51.63;29.42;;;5.50;56.00;;;;;;4996706;28;20389;-74
2022/11/19 08:55:22;;;;;;;49.20;27.90;;;5.50;56.90;;;;;;4996720;28;20472;-74
2022/11/19 08:57:47;;;;;;;46.92;29.17;;;5.60;55.10;;;;;;4994810;28;20437;-75
2022/11/19 09:00:14;;;;;;;51.50;29.50;;;5.60;55.60;;;;;;4994799;28;20394;-74
2022/11/19 09:02:39;;;;;;;45.33;26.97;;;5.70;55.90;;;;;;4993321;28;20405;-75
2022/11/19 09:05:05;;;;;;;47.85;28.40;;;5.70;55.50;;;;;;4995373;28;20390;-74
2022/11/19 09:07:31;;;;;;;42.90;27.55;;;5.70;56.30;;;;;;4997757;28;20396;-74
2022/11/19 09:09:56;;;;;;;44.23;26.67;;;5.80;53.00;;;;;;4998326;28;20398;-73
2022/11/19 09:12:22;;;;;;;42.00;25.80;;;5.90;50.70;;;;;;4997692;28;20449;-75
2022/11/19 09:14:49;;;;;;;44.43;27.43;;;5.80;51.40;;;;;;5000097;28;20382;-74
2022/11/19 09:17:15;;;;;;;44.38;27.63;;;5.80;54.40;;;;;;4998341;28;20412;-74
2022/11/19 09:19:40;;;;;;;44.35;25.98;;;5.80;54.10;;;;;;5000832;28;20796;-73
2022/11/19 09:22:06;;;;;;;41.23;25.07;;;5.80;50.80;;;;;;4997113;28;20497;-75
2022/11/19 09:24:31;;;;;;;40.67;25.63;;;5.90;51.20;;;;;;4995256;28;20391;-73
2022/11/19 09:26:57;;;;;;;49.20;27.13;;;5.90;49.20;;;;;;4994916;28;20386;-74
2022/11/19 09:29:22;;;;;;;42.83;26.57;;;5.90;48.30;;;;;;4994593;28;20390;-73
2022/11/19 09:31:48;;;;;;;44.90;27.40;;;5.80;52.40;;;;;;4993624;28;20418;-73
2022/11/19 09:34:13;;;;;;;44.87;26.07;;;5.70;56.20;;;;;;4992988;28;20389;-74
2022/11/19 09:36:39;;;;;;;45.03;25.30;;;5.80;53.80;;;;;;4994312;28;20390;-74
2022/11/19 09:39:04;;;;;;;45.37;25.03;;;5.90;48.70;;;;;;4994829;28;20449;-74
2022/11/19 09:41:48;;;;;;;40.37;25.93;;;5.90;47.10;;;;;;4993986;28;20561;-73
2022/11/19 09:44:52;;;;;;;39.50;23.80;;;5.80;48.60;;;;;;4995040;28;20397;-72
2022/11/19 09:47:43;;;;;;;42.28;23.90;;;5.90;46.50;;;;;;4995401;28;20386;-74
2022/11/19 09:50:32;;;;;;;40.17;24.13;;;5.90;46.10;;;;;;4996670;28;20786;-73
2022/11/19 09:53:13;;;;;;;46.07;25.80;;;5.80;44.60;;;;;;4995844;28;20406;-73
2022/11/19 09:55:42;;;;;;;43.72;25.13;;;5.80;45.80;;;;;;4998353;28;20741;-75
2022/11/19 09:58:26;;;;;;;42.67;25.95;;;5.80;46.10;;;;;;5000783;28;20441;-74
2022/11/19 10:00:52;;;;;;;48.08;26.95;;;5.90;47.70;;;;;;5010718;28;20386;-75
2022/11/19 10:03:21;;;;;;;43.13;25.10;;;5.90;47.50;;;;;;5007827;28;20395;-73
2022/11/19 10:06:13;;;;;;;39.47;23.92;;;5.90;46.00;;;;;;5003734;28;20394;-75
2022/11/19 10:08:51;;;;;;;45.17;23.33;;;5.90;45.50;;;;;;4993871;28;20385;-74
2022/11/19 10:11:28;;;;;;;43.13;25.33;;;5.90;43.80;;;;;;4994120;28;20892;-73
2022/11/19 10:14:23;;;;;;;41.33;24.07;;;5.80;44.50;;;;;;4993935;28;20450;-74
2022/11/19 10:17:04;;;;;;;41.72;24.65;;;5.70;45.10;;;;;;4993832;28;20393;-73
2022/11/19 10:20:07;;;;;;;40.58;24.50;;;5.60;46.30;;;;;;4994143;28;20880;-75
2022/11/19 10:22:41;;;;;;;43.90;26.15;;;5.70;47.90;;;;;;4993357;28;20391;-74
2022/11/19 10:25:10;;;;;;;42.15;25.85;;;5.80;50.00;;;;;;4993730;28;20660;-74
2022/11/19 10:27:48;;;;;;;42.72;25.77;;;6.00;47.70;;;;;;4992360;28;20405;-74
2022/11/19 10:30:20;;;;;;;39.55;24.67;;;6.00;47.50;;;;;;5001352;28;20371;-75
2022/11/19 10:32:48;;;;;;;41.50;25.03;;;6.20;46.80;;;;;;5011950;28;20414;-74
2022/11/19 10:35:21;;;;;;;41.60;24.90;;;6.20;45.80;;;;;;5007209;28;20395;-75
2022/11/19 10:38:16;;;;;;;42.05;25.05;;;6.30;46.90;;;;;;4994625;28;20385;-74
2022/11/19 10:40:53;;;;;;;45.75;25.35;;;6.30;45.00;;;;;;4991891;28;20394;-74
2022/11/19 10:43:45;;;;;;;44.35;25.42;;;6.00;45.50;;;;;;4993320;28;20483;-74
2022/11/19 10:46:15;;;;;;;42.53;24.88;;;5.90;48.40;;;;;;4993518;28;20474;-76
2022/11/19 10:48:44;;;;;;;47.10;26.93;;;5.90;47.00;;;;;;4993128;28;20569;-75
2022/11/19 10:51:39;;;;;;;40.45;26.27;;;5.90;50.20;;;;;;4993023;28;20414;-75
2022/11/19 10:54:22;;;;;;;44.33;26.80;;;6.10;47.50;;;;;;4993744;28;20481;-74
2022/11/19 10:56:51;;;;;;;47.17;26.80;;;6.30;50.20;;;;;;4993853;28;20449;-75
2022/11/19 10:59:28;;;;;;;39.38;24.08;;;6.60;47.90;;;;;;4993494;28;20386;-74
2022/11/19 11:02:14;;;;;;;39.75;23.90;;;6.70;43.50;;;;;;4992838;28;20396;-75
2022/11/19 11:05:04;;;;;;;41.47;24.97;;;6.90;44.80;;;;;;4993063;28;20408;-74
2022/11/19 11:07:46;;;;;;;40.10;24.17;;;7.10;44.20;;;;;;4991615;28;20425;-74
2022/11/19 11:10:37;;;;;;;41.10;23.47;;;7.30;44.30;;;;;;4992869;28;20489;-75
2022/11/19 11:16:15;;;;;;;35.30;22.83;;;7.40;40.00;;;;;;4993425;28;20485;-74
2022/11/19 11:18:41;;;;;;;33.42;22.08;;;7.20;38.50;;;;;;4993941;28;20380;-75
2022/11/19 11:21:11;;;;;;;36.40;21.90;;;6.80;39.90;;;;;;4993129;28;20409;-75
2022/11/19 11:23:49;;;;;;;34.92;21.48;;;6.60;40.70;;;;;;4992315;28;20407;-73
2022/11/19 11:26:21;;;;;;;34.10;20.92;;;6.40;42.80;;;;;;4990941;28;20425;-75
2022/11/19 11:29:00;;;;;;;33.58;21.40;;;6.40;42.60;;;;;;4992137;28;20403;-75
2022/11/19 11:31:34;;;;;;;35.38;22.20;;;6.40;43.50;;;;;;4992033;28;20441;-75
2022/11/19 11:34:01;;;;;;;37.20;22.60;;;6.40;44.50;;;;;;4992174;28;20695;-75
2022/11/19 11:36:29;;;;;;;33.03;20.35;;;6.40;43.40;;;;;;4991810;28;20391;-73
2022/11/19 11:38:57;;;;;;;32.85;20.90;;;6.50;43.60;;;;;;4991959;28;20856;-73
2022/11/19 11:41:41;;;;;;;36.42;21.40;;;6.40;42.80;;;;;;4991968;28;20406;-74
2022/11/19 11:44:20;;;;;;;33.33;20.60;;;6.40;42.60;;;;;;4992456;28;20413;-74
2022/11/19 11:46:55;;;;;;;35.47;22.30;;;6.50;42.50;;;;;;4992231;28;20455;-74
2022/11/19 11:49:34;;;;;;;34.38;21.17;;;6.50;42.40;;;;;;4992031;28;20520;-74
2022/11/19 11:52:14;;;;;;;35.20;21.65;;;6.30;42.60;;;;;;4991797;28;20423;-76
2022/11/19 11:55:01;;;;;;;31.77;20.52;;;6.20;44.10;;;;;;4992266;28;20393;-74
2022/11/19 11:57:28;;;;;;;31.20;20.33;;;6.40;43.30;;;;;;4991155;28;20419;-74
2022/11/19 11:59:55;;;;;;;32.95;20.95;;;6.50;42.40;;;;;;4990819;28;20457;-75
2022/11/19 12:02:33;;;;;;;31.02;20.23;;;6.50;42.10;;;;;;4991765;28;20449;-73
2022/11/19 12:05:15;;;;;;;32.22;21.40;;;6.40;41.20;;;;;;4992570;28;20437;-74
2022/11/19 12:08:03;;;;;;;28.77;19.35;;;6.50;43.40;;;;;;4994149;28;20401;-74
2022/11/19 12:10:55;;;;;;;37.78;21.85;;;6.40;42.00;;;;;;4997202;28;20383;-74
2022/11/19 12:13:38;;;;;;;36.65;21.50;;;6.50;41.00;;;;;;4994407;28;20399;-74
2022/11/19 12:16:17;;;;;;;32.90;21.40;;;6.40;44.00;;;;;;5001612;28;20380;-75
2022/11/19 12:19:07;;;;;;;35.70;21.67;;;6.50;44.30;;;;;;4995693;28;20476;-75
2022/11/19 12:21:52;;;;;;;31.23;19.90;;;6.60;44.00;;;;;;4991272;28;20386;-74
2022/11/19 12:24:42;;;;;;;32.15;19.60;;;6.80;40.90;;;;;;4991673;28;21017;-75
2022/11/19 12:27:48;;;;;;;29.63;20.13;;;6.80;39.40;;;;;;4993331;28;20496;-74
2022/11/19 12:30:18;;;;;;;30.98;20.40;;;6.80;43.50;;;;;;4997118;28;20705;-77
2022/11/19 12:33:06;;;;;;;36.47;21.75;;;6.80;42.80;;;;;;4995431;28;20914;-75
2022/11/19 12:35:53;;;;;;;32.00;20.10;;;7.00;45.20;;;;;;4993725;28;20426;-76
2022/11/19 12:38:33;;;;;;;26.40;18.45;;;7.20;41.10;;;;;;4995174;28;20384;-74
2022/11/19 12:41:31;;;;;;;28.80;19.20;;;7.20;38.20;;;;;;4994931;28;20402;-75
2022/11/19 12:44:00;;;;;;;30.23;18.80;;;7.00;39.30;;;;;;4997049;28;20470;-75
2022/11/19 12:46:34;;;;;;;38.60;20.02;;;6.90;39.40;;;;;;4996129;28;20516;-76
2022/11/19 12:49:27;;;;;;;28.23;18.90;;;6.70;41.90;;;;;;4995458;28;20401;-74
2022/11/19 12:52:40;;;;;;;33.27;19.20;;;6.80;39.90;;;;;;4995179;28;20938;-74
2022/11/19 12:55:25;;;;;;;27.35;18.00;;;6.80;39.10;;;;;;4996278;28;20388;-76
2022/11/19 12:58:09;;;;;;;29.48;19.20;;;6.80;39.20;;;;;;4996241;28;20480;-75
2022/11/19 13:00:45;;;;;;;32.28;19.42;;;6.80;40.80;;;;;;4994504;28;20411;-74
2022/11/19 13:03:20;;;;;;;27.98;18.52;;;6.80;42.90;;;;;;4994586;28;20377;-75
2022/11/19 13:06:21;;;;;;;29.53;19.87;;;6.80;40.50;;;;;;4993091;28;20411;-76
2022/11/19 13:08:55;;;;;;;28.25;19.25;;;6.80;41.80;;;;;;4989057;28;20430;-74
2022/11/19 13:11:44;;;;;;;29.27;18.75;;;6.80;40.10;;;;;;4995415;28;20773;-76
2022/11/19 13:14:31;;;;;;;26.35;17.90;;;6.70;39.50;;;;;;4995312;28;20779;-75